createdAt,value
2018-03-02T00:00:25.550Z,61.15
2018-03-02T00:02:55.995Z,44.17
2018-03-02T00:05:30.802Z,41.92
2018-03-02T00:08:12.071Z,42.62
2018-03-02T00:10:51.435Z,47.67
2018-03-02T00:13:25.956Z,58.92
2018-03-02T00:16:05.176Z,69.05
2018-03-02T00:18:35.696Z,49.83
2018-03-02T00:21:08.107Z,62.83
2018-03-02T00:23:37.494Z,61.78
2018-03-02T00:26:11.984Z,51.92
2018-03-02T00:28:46.361Z,39.13
2018-03-02T00:31:16.137Z,57.10
2018-03-02T00:33:46.023Z,58.30
2018-03-02T00:36:15.770Z,57.05
2018-03-02T00:38:45.549Z,55.12
2018-03-02T00:41:17.283Z,35.25
2018-03-02T00:43:46.947Z,64.85
2018-03-02T00:46:17.749Z,63.78
2018-03-02T00:48:50.013Z,50.15
2018-03-02T00:51:25.371Z,30.75
2018-03-02T00:53:55.171Z,46.20
2018-03-02T00:56:25.246Z,56.42
2018-03-02T00:58:55.207Z,66.03
2018-03-02T01:01:26.412Z,44.25
2018-03-02T01:03:56.372Z,55.33
2018-03-02T01:06:37.762Z,53.33
2018-03-02T01:09:11.960Z,54.70
2018-03-02T01:11:42.495Z,63.45
2018-03-02T01:14:12.098Z,72.85
2018-03-02T01:16:42.022Z,56.58
2018-03-02T01:19:11.630Z,51.90
2018-03-02T01:21:41.622Z,54.15
2018-03-02T01:24:12.054Z,54.80
2018-03-02T01:26:41.896Z,50.85
2018-03-02T01:29:11.869Z,52.00
2018-03-02T01:31:41.592Z,48.47
2018-03-02T01:34:18.953Z,39.53
2018-03-02T01:36:48.702Z,67.37
2018-03-02T01:39:18.328Z,46.03
2018-03-02T01:41:47.934Z,57.47
2018-03-02T01:44:17.532Z,56.00
2018-03-02T01:46:49.968Z,54.38
2018-03-02T01:49:21.154Z,57.97
2018-03-02T01:52:08.096Z,91.53
2018-03-02T01:54:49.712Z,54.88
2018-03-02T01:57:20.119Z,43.28
2018-03-02T01:59:52.545Z,56.90
2018-03-02T02:02:24.070Z,54.80
2018-03-02T02:04:53.639Z,58.80
2018-03-02T02:07:24.663Z,49.10
2018-03-02T02:09:55.049Z,35.70
2018-03-02T02:12:28.982Z,47.47
2018-03-02T02:15:01.718Z,66.00
2018-03-02T02:17:36.888Z,73.82
2018-03-02T02:20:10.920Z,47.40
2018-03-02T02:22:41.128Z,40.40
2018-03-02T02:25:17.499Z,55.12
2018-03-02T02:27:47.568Z,58.15
2018-03-02T02:30:17.120Z,52.75
2018-03-02T02:32:46.710Z,69.78
2018-03-02T02:35:16.257Z,68.47
2018-03-02T02:37:45.868Z,42.72
2018-03-02T02:40:16.780Z,78.05
2018-03-02T02:42:46.925Z,54.67
2018-03-02T02:45:16.430Z,62.33
2018-03-02T02:47:46.698Z,65.95
2018-03-02T02:50:16.440Z,58.28
2018-03-02T02:52:46.125Z,46.15
2018-03-02T02:55:16.524Z,68.18
2018-03-02T02:57:46.321Z,32.17
2018-03-02T03:00:17.748Z,49.97
2018-03-02T03:02:47.537Z,55.35
2018-03-02T03:05:17.018Z,65.10
2018-03-02T03:07:47.252Z,48.80
2018-03-02T03:10:17.108Z,57.08
2018-03-02T03:12:46.578Z,49.28
2018-03-02T03:15:16.924Z,50.65
2018-03-02T03:17:46.642Z,66.12
2018-03-02T03:20:16.888Z,63.33
2018-03-02T03:22:46.461Z,58.20
2018-03-02T03:25:16.034Z,63.00
2018-03-02T03:27:46.333Z,87.78
2018-03-02T03:30:15.810Z,68.55
2018-03-02T03:32:46.280Z,62.05
2018-03-02T03:35:15.696Z,56.63
2018-03-02T03:37:45.444Z,68.28
2018-03-02T03:40:17.119Z,58.72
2018-03-02T03:42:47.323Z,64.30
2018-03-02T03:45:17.659Z,95.22
2018-03-02T03:47:47.574Z,64.12
2018-03-02T03:50:17.007Z,52.67
2018-03-02T03:52:47.073Z,49.75
2018-03-02T03:55:16.461Z,59.95
2018-03-02T03:57:46.973Z,73.35
2018-03-02T04:00:16.309Z,48.45
2018-03-02T04:02:46.027Z,57.05
2018-03-02T04:05:15.571Z,61.45
2018-03-02T04:07:45.930Z,55.58
2018-03-02T04:10:15.528Z,39.08
2018-03-02T04:12:44.912Z,41.67
2018-03-02T04:15:14.095Z,59.92
2018-03-02T04:17:43.539Z,55.03
2018-03-02T04:20:12.922Z,62.80
2018-03-02T04:22:43.112Z,55.67
2018-03-02T04:25:12.508Z,54.17
2018-03-02T04:27:41.931Z,70.03
2018-03-02T04:30:20.695Z,56.28
2018-03-02T04:36:32.267Z,55.10
2018-03-02T04:39:01.752Z,64.10
2018-03-02T04:41:31.234Z,68.65
2018-03-02T04:44:01.664Z,49.22
2018-03-02T04:46:31.624Z,42.60
2018-03-02T04:49:01.101Z,56.60
2018-03-02T04:51:30.662Z,80.78
2018-03-02T04:54:01.129Z,69.90
2018-03-02T04:56:31.056Z,72.85
2018-03-02T04:59:01.778Z,79.85
2018-03-02T05:01:31.375Z,67.87
2018-03-02T05:04:00.614Z,84.13
2018-03-02T05:06:29.913Z,66.78
2018-03-02T05:08:59.268Z,48.45
2018-03-02T05:11:28.777Z,66.28
2018-03-02T05:13:58.419Z,55.00
2018-03-02T05:16:28.099Z,57.65
2018-03-02T05:18:59.222Z,59.10
2018-03-02T05:21:28.949Z,49.55
2018-03-02T05:23:58.451Z,71.95
2018-03-02T05:26:27.920Z,50.00
2018-03-02T05:28:57.523Z,71.05
2018-03-02T05:31:35.890Z,77.72
2018-03-02T05:34:05.780Z,50.92
2018-03-02T05:36:35.554Z,67.43
2018-03-02T05:39:24.970Z,67.00
2018-03-02T05:41:54.531Z,62.83
2018-03-02T05:44:24.469Z,75.82
2018-03-02T05:46:54.471Z,57.67
2018-03-02T05:49:24.691Z,58.95
2018-03-02T05:51:54.413Z,76.40
2018-03-02T05:54:24.348Z,71.60
2018-03-02T05:56:54.980Z,66.15
2018-03-02T05:59:25.420Z,71.15
2018-03-02T06:01:55.763Z,72.35
2018-03-02T06:04:25.589Z,59.88
2018-03-02T06:06:55.214Z,86.85
2018-03-02T06:09:25.203Z,69.97
2018-03-02T06:11:54.833Z,59.45
2018-03-02T06:14:25.305Z,63.38
2018-03-02T06:16:55.026Z,69.43
2018-03-02T06:19:28.893Z,66.65
2018-03-02T06:21:58.988Z,64.40
2018-03-02T06:24:29.744Z,70.05
2018-03-02T06:27:00.924Z,67.62
2018-03-02T06:29:30.837Z,75.18
2018-03-02T06:32:00.706Z,62.83
2018-03-02T06:34:31.472Z,54.22
2018-03-02T06:37:07.620Z,63.05
2018-03-02T06:39:48.285Z,62.08
2018-03-02T06:42:23.468Z,51.05
2018-03-02T06:44:55.120Z,70.43
2018-03-02T06:47:24.621Z,72.07
2018-03-02T06:49:54.291Z,79.85
2018-03-02T06:52:24.594Z,80.57
2018-03-02T06:54:54.840Z,59.70
2018-03-02T06:57:24.688Z,77.32
2018-03-02T06:59:55.710Z,74.65
2018-03-02T07:02:26.119Z,82.75
2018-03-02T07:04:56.000Z,88.57
2018-03-02T07:07:29.069Z,67.87
2018-03-02T07:10:00.248Z,83.57
2018-03-02T07:12:30.064Z,74.82
2018-03-02T07:15:02.626Z,78.03
2018-03-02T07:17:32.727Z,82.07
2018-03-02T07:20:04.469Z,63.65
2018-03-02T07:22:34.496Z,66.40
2018-03-02T07:25:07.292Z,47.28
2018-03-02T07:27:40.530Z,71.62
2018-03-02T07:30:11.065Z,81.47
2018-03-02T07:32:40.612Z,72.00
2018-03-02T07:35:10.638Z,78.90
2018-03-02T07:37:41.955Z,75.15
2018-03-02T07:40:11.600Z,70.47
2018-03-02T07:42:41.991Z,68.43
2018-03-02T07:45:11.589Z,72.90
2018-03-02T07:47:42.455Z,71.28
2018-03-02T07:50:13.206Z,62.88
2018-03-02T07:52:42.925Z,81.75
2018-03-02T07:55:12.355Z,71.87
2018-03-02T07:57:51.208Z,49.17
2018-03-02T08:00:30.746Z,69.00
2018-03-02T08:03:03.120Z,73.45
2018-03-02T08:05:33.384Z,73.30
2018-03-02T08:08:03.915Z,78.35
2018-03-02T08:10:35.165Z,68.78
2018-03-02T08:13:06.131Z,100.53
2018-03-02T08:15:38.823Z,88.43
2018-03-02T08:18:25.425Z,69.40
2018-03-02T08:20:59.666Z,67.05
2018-03-02T08:23:33.020Z,71.03
2018-03-02T08:26:09.238Z,73.57
2018-03-02T08:28:45.606Z,64.43
2018-03-02T08:31:17.427Z,77.70
2018-03-02T08:33:48.397Z,66.45
2018-03-02T08:36:20.660Z,78.00
2018-03-02T08:38:51.455Z,72.78
2018-03-02T08:41:28.539Z,81.55
2018-03-02T08:43:59.786Z,58.40
2018-03-02T08:46:31.634Z,56.58
2018-03-02T08:49:02.993Z,70.93
2018-03-02T08:51:36.690Z,63.00
2018-03-02T08:54:09.216Z,90.15
2018-03-02T08:56:39.284Z,64.22
2018-03-02T08:59:12.796Z,78.55
2018-03-02T09:01:43.203Z,64.50
2018-03-02T09:04:16.690Z,58.20
2018-03-02T09:06:48.574Z,67.60
2018-03-02T09:09:21.275Z,68.68
2018-03-02T09:11:57.415Z,61.00
2018-03-02T09:14:27.751Z,69.30
2018-03-02T09:17:01.157Z,63.15
2018-03-02T09:19:35.010Z,68.75
2018-03-02T09:22:10.605Z,70.35
2018-03-02T09:24:43.752Z,69.45
2018-03-02T09:27:14.936Z,65.25
2018-03-02T09:29:46.814Z,69.97
2018-03-02T09:32:21.430Z,70.97
2018-03-02T09:34:55.657Z,43.05
2018-03-02T09:41:45.227Z,70.72
2018-03-02T09:44:16.580Z,62.10
2018-03-02T09:46:55.623Z,64.93
2018-03-02T09:49:27.175Z,73.87
2018-03-02T09:52:06.390Z,77.40
2018-03-02T09:54:41.427Z,66.70
2018-03-02T09:57:12.524Z,77.60
2018-03-02T09:59:44.971Z,53.80
2018-03-02T10:02:17.567Z,76.62
2018-03-02T10:04:47.798Z,76.20
2018-03-02T10:07:19.605Z,72.47
2018-03-02T10:09:50.646Z,72.68
2018-03-02T10:12:22.556Z,73.03
2018-03-02T10:14:54.123Z,70.75
2018-03-02T10:17:25.612Z,75.75
2018-03-02T10:19:56.771Z,64.55
2018-03-02T10:22:29.827Z,75.53
2018-03-02T10:25:03.764Z,60.97
2018-03-02T10:27:39.831Z,75.30
2018-03-02T10:30:11.056Z,78.68
2018-03-02T10:32:41.808Z,91.87
2018-03-02T10:35:14.499Z,72.35
2018-03-02T10:37:47.012Z,73.80
2018-03-02T10:40:17.166Z,80.93
2018-03-02T10:42:47.345Z,80.93
2018-03-02T10:45:26.493Z,77.60
2018-03-02T10:47:59.301Z,65.43
2018-03-02T10:50:30.696Z,74.70
2018-03-02T10:53:02.712Z,75.53
2018-03-02T10:55:36.992Z,74.60
2018-03-02T10:58:09.116Z,80.78
2018-03-02T11:03:39.545Z,79.18
2018-03-02T11:06:13.377Z,62.92
2018-03-02T11:08:45.487Z,78.00
2018-03-02T11:11:22.284Z,77.82
2018-03-02T11:14:01.971Z,69.35
2018-03-02T11:16:37.565Z,74.03
2018-03-02T11:19:09.201Z,60.22
2018-03-02T11:21:41.292Z,77.95
2018-03-02T11:24:21.425Z,61.10
2018-03-02T11:27:00.591Z,65.18
2018-03-02T11:29:32.959Z,67.50
2018-03-02T11:32:05.410Z,70.68
2018-03-02T11:35:00.371Z,75.50
2018-03-02T11:37:42.538Z,66.78
2018-03-02T11:40:13.879Z,72.57
2018-03-02T11:46:39.451Z,74.55
2018-03-02T11:49:12.529Z,77.53
2018-03-02T11:51:42.894Z,87.62
2018-03-02T11:54:14.403Z,84.03
2018-03-02T11:56:45.193Z,69.75
2018-03-02T11:59:16.627Z,85.03
2018-03-02T12:01:57.320Z,79.90
2018-03-02T12:04:40.861Z,89.55
2018-03-02T12:11:29.811Z,99.40
2018-03-02T12:14:01.788Z,82.03
2018-03-02T12:16:35.233Z,85.32
2018-03-02T12:19:14.653Z,81.35
2018-03-02T12:21:46.354Z,74.90
2018-03-02T12:24:22.651Z,77.10
2018-03-02T12:27:03.459Z,70.45
2018-03-02T12:29:41.484Z,74.15
2018-03-02T12:32:23.366Z,82.70
2018-03-02T12:34:56.194Z,78.32
2018-03-02T12:37:32.950Z,72.95
2018-03-02T12:40:12.111Z,83.87
2018-03-02T12:42:43.635Z,80.20
2018-03-02T12:45:15.916Z,68.20
2018-03-02T12:47:49.747Z,76.68
2018-03-02T12:50:22.035Z,74.65
2018-03-02T12:52:53.413Z,72.75
2018-03-02T12:55:45.438Z,88.78
2018-03-02T12:58:21.192Z,73.43
2018-03-02T13:00:59.030Z,78.40
2018-03-02T13:03:34.916Z,81.05
2018-03-02T13:06:09.763Z,87.10
2018-03-02T13:08:42.945Z,76.37
2018-03-02T13:11:18.875Z,86.00
2018-03-02T13:14:12.775Z,69.43
2018-03-02T13:16:46.400Z,94.55
2018-03-02T13:19:26.688Z,68.90
2018-03-02T13:21:57.906Z,73.97
2018-03-02T13:24:38.601Z,85.55
2018-03-02T13:30:38.279Z,74.70
2018-03-02T13:33:19.220Z,82.05
2018-03-02T13:35:59.681Z,58.25
2018-03-02T13:38:31.700Z,89.10
2018-03-02T13:41:18.664Z,67.10
2018-03-02T13:43:51.853Z,86.82
2018-03-02T13:46:22.908Z,81.18
2018-03-02T13:54:21.679Z,98.72
2018-03-02T13:57:10.767Z,93.62
2018-03-02T13:59:56.444Z,76.57
2018-03-02T14:02:36.820Z,92.65
2018-03-02T14:05:14.685Z,69.30
2018-03-02T14:10:48.863Z,79.55
2018-03-02T14:13:24.090Z,91.50
2018-03-02T14:15:54.980Z,74.55
2018-03-02T14:18:26.757Z,83.37
2018-03-02T14:21:01.426Z,72.68
2018-03-02T14:23:34.399Z,82.82
2018-03-02T14:26:06.097Z,66.62
2018-03-02T14:28:38.321Z,68.05
2018-03-02T14:31:10.583Z,89.03
2018-03-02T14:33:40.807Z,83.82
2018-03-02T14:36:15.667Z,71.15
2018-03-02T14:38:47.184Z,95.20
2018-03-02T14:41:21.122Z,79.60
2018-03-02T14:44:38.398Z,78.47
2018-03-02T14:47:38.804Z,83.28
2018-03-02T14:50:12.372Z,85.10
2018-03-02T14:52:44.917Z,86.07
2018-03-02T14:55:15.696Z,88.12
2018-03-02T14:57:47.741Z,94.82
2018-03-02T15:00:18.347Z,92.75
2018-03-02T15:02:49.073Z,103.03
2018-03-02T15:05:22.186Z,97.97
2018-03-02T15:07:52.566Z,79.90
2018-03-02T15:10:30.851Z,87.97
2018-03-02T15:13:07.976Z,87.70
2018-03-02T15:15:40.190Z,83.75
2018-03-02T15:18:11.612Z,78.32
2018-03-02T15:20:42.942Z,71.15
2018-03-02T15:23:12.560Z,71.20
2018-03-02T15:25:43.350Z,93.68
2018-03-02T15:28:14.714Z,76.57
2018-03-02T15:30:56.229Z,86.72
2018-03-02T15:33:27.739Z,94.90
2018-03-02T15:39:03.574Z,98.30
2018-03-02T15:41:35.262Z,80.28
2018-03-02T15:44:08.614Z,102.45
2018-03-02T15:46:53.363Z,78.20
2018-03-02T15:49:26.048Z,101.50
2018-03-02T15:51:57.190Z,90.62
2018-03-02T15:54:30.815Z,88.90
2018-03-02T15:57:12.411Z,97.30
2018-03-02T15:59:45.787Z,105.65
2018-03-02T16:02:19.579Z,91.63
2018-03-02T16:04:52.385Z,83.32
2018-03-02T16:07:25.238Z,86.03
2018-03-02T16:09:57.244Z,110.37
2018-03-02T16:12:36.642Z,93.53
2018-03-02T16:15:09.896Z,105.05
2018-03-02T16:21:12.821Z,82.65
2018-03-02T16:23:46.327Z,86.87
2018-03-02T16:26:16.297Z,85.45
2018-03-02T16:28:48.250Z,91.57
2018-03-02T16:31:18.848Z,98.87
2018-03-02T16:33:49.894Z,87.37
2018-03-02T16:36:23.894Z,100.57
2018-03-02T16:38:53.842Z,87.43
2018-03-02T16:41:29.232Z,108.90
2018-03-02T16:44:05.907Z,82.47
2018-03-02T16:46:37.300Z,110.97
2018-03-02T16:49:11.434Z,95.53
2018-03-02T16:51:45.925Z,114.75
2018-03-02T16:54:19.187Z,116.25
2018-03-02T16:56:51.152Z,106.32
2018-03-02T16:59:22.607Z,97.85
2018-03-02T17:01:54.434Z,98.45
2018-03-02T17:04:30.579Z,94.50
2018-03-02T17:07:14.738Z,72.57
2018-03-02T17:10:00.056Z,103.62
2018-03-02T17:12:47.059Z,95.68
2018-03-02T17:15:19.647Z,97.43
2018-03-02T17:17:51.138Z,98.53
2018-03-02T17:20:26.320Z,91.70
2018-03-02T17:23:19.447Z,87.82
2018-03-02T17:26:08.091Z,92.60
2018-03-02T17:28:43.049Z,92.05
2018-03-02T17:31:15.831Z,99.57
2018-03-02T17:33:48.308Z,89.18
2018-03-02T17:36:21.250Z,86.40
2018-03-02T17:38:57.937Z,104.87
2018-03-02T17:41:31.505Z,109.68
2018-03-02T17:44:09.271Z,109.28
2018-03-02T17:46:41.965Z,96.25
2018-03-02T17:49:15.627Z,95.90
2018-03-02T17:52:00.539Z,105.55
2018-03-02T17:54:41.713Z,101.38
2018-03-02T17:57:29.872Z,107.07
2018-03-02T18:00:10.608Z,117.55
2018-03-02T18:02:42.116Z,120.07
2018-03-02T18:05:14.820Z,94.37
2018-03-02T18:08:00.393Z,100.38
2018-03-02T18:10:44.677Z,112.97
2018-03-02T18:16:40.660Z,97.60
2018-03-02T18:20:23.780Z,107.28
2018-03-02T18:22:56.312Z,123.43
2018-03-02T18:29:19.822Z,77.90
2018-03-02T18:32:02.826Z,124.95
2018-03-02T18:35:04.749Z,109.68
2018-03-02T18:37:41.153Z,85.12
2018-03-02T18:40:16.628Z,92.78
2018-03-02T18:46:39.438Z,113.62
2018-03-02T18:49:15.351Z,99.13
2018-03-02T18:52:18.572Z,113.55
2018-03-02T18:57:45.100Z,92.95
2018-03-02T19:08:41.702Z,115.37
2018-03-02T19:11:20.794Z,115.97
2018-03-02T19:14:01.206Z,123.05
2018-03-02T19:19:20.406Z,129.60
2018-03-02T19:25:04.361Z,138.73
2018-03-02T19:27:39.616Z,130.77
2018-03-02T19:30:16.287Z,119.87
2018-03-02T19:33:22.431Z,112.65
2018-03-02T19:36:02.843Z,121.37
2018-03-02T19:38:40.731Z,122.35
2018-03-02T19:41:34.600Z,141.90
2018-03-02T19:44:11.448Z,137.73
2018-03-02T19:46:43.896Z,132.27
2018-03-02T19:49:35.994Z,158.50
2018-03-02T19:52:16.207Z,156.63
2018-03-02T19:55:00.478Z,155.55
2018-03-02T19:57:40.277Z,143.50
2018-03-02T20:00:22.697Z,172.27
2018-03-02T20:05:53.590Z,153.18
2018-03-02T20:08:37.734Z,151.52
2018-03-02T20:11:29.472Z,154.45
2018-03-02T20:17:18.872Z,157.98
2018-03-02T20:30:47.809Z,165.85
2018-03-02T20:33:47.215Z,167.95
2018-03-02T20:36:22.717Z,145.40
2018-03-02T20:39:02.784Z,156.50
2018-03-02T20:41:43.517Z,139.60
2018-03-02T20:44:18.778Z,154.12
2018-03-02T20:48:18.029Z,165.15
2018-03-02T20:51:00.219Z,148.50
2018-03-02T20:56:15.312Z,114.20
2018-03-02T20:58:57.883Z,149.60
2018-03-02T21:01:39.819Z,138.85
2018-03-02T21:04:21.108Z,154.20
2018-03-02T21:07:03.030Z,133.75
2018-03-02T21:09:36.190Z,112.03
2018-03-02T21:12:10.100Z,156.10
2018-03-02T21:17:55.292Z,106.15
2018-03-02T21:20:40.757Z,166.80
2018-03-02T21:23:15.882Z,154.23
2018-03-02T21:25:49.174Z,154.80
2018-03-02T21:28:23.633Z,184.00
2018-03-02T21:31:04.494Z,181.50
2018-03-02T21:33:39.288Z,199.00
2018-03-02T21:36:14.656Z,182.93
2018-03-02T21:39:16.649Z,138.77
2018-03-02T21:42:15.364Z,179.40
2018-03-02T21:44:59.850Z,172.73
2018-03-02T21:47:34.258Z,170.50
2018-03-02T21:50:17.566Z,176.80
2018-03-02T21:52:50.385Z,188.48
2018-03-02T21:55:33.428Z,182.73
2018-03-02T21:58:49.330Z,173.77
2018-03-02T22:08:47.882Z,151.45
2018-03-02T22:11:20.445Z,167.02
2018-03-02T22:13:51.221Z,157.57
2018-03-02T22:16:35.639Z,150.85
2018-03-02T22:19:26.718Z,160.77
2018-03-02T22:21:59.897Z,174.20
2018-03-02T22:24:51.637Z,166.77
2018-03-02T22:27:45.211Z,178.65
2018-03-02T22:30:44.179Z,174.07
2018-03-02T22:33:22.757Z,138.15
2018-03-02T22:35:58.920Z,150.60
2018-03-02T22:38:35.093Z,151.25
2018-03-02T22:41:08.077Z,148.93
2018-03-02T22:43:43.613Z,131.60
2018-03-02T22:46:19.014Z,190.02
2018-03-02T22:52:10.035Z,177.43
2018-03-02T22:54:45.831Z,190.10
2018-03-02T22:57:35.975Z,143.05
2018-03-02T23:00:45.778Z,173.40
2018-03-02T23:03:31.160Z,177.38
2018-03-02T23:06:06.886Z,171.77
2018-03-02T23:08:49.808Z,173.23
2018-03-02T23:11:28.795Z,173.73
2018-03-02T23:14:10.508Z,202.45
2018-03-02T23:17:05.210Z,180.07
2018-03-02T23:19:41.280Z,188.80
2018-03-02T23:25:09.372Z,156.77
2018-03-02T23:28:02.058Z,183.37
2018-03-02T23:30:39.803Z,169.77
2018-03-02T23:33:16.114Z,190.55
2018-03-02T23:36:11.353Z,169.20
2018-03-02T23:38:59.730Z,191.43
2018-03-02T23:41:54.753Z,140.82
2018-03-02T23:44:46.183Z,145.40
2018-03-02T23:47:34.400Z,177.10
2018-03-02T23:50:07.059Z,179.95
2018-03-02T23:52:39.563Z,170.62
2018-03-02T23:55:23.964Z,176.45
2018-03-02T23:58:00.836Z,190.95
